• Join FlightAware (Why Join?)
  • Login
  • US Flag 
05:17AM EST


 

Airport Tracker/Info


-or-


 

Live Flight TrackerFlight Track Log ✈ EJA831 ✈ 06-Dec-2013 ✈ KCMH - KTEB

Flight Track Log - Related Links

Times and Time Zones

All times are in EST time to prevent confusion due to time zone crossing. See the EJA831 flight status page for this flight to view local times or setup timezone preferences in your user account.

Time Position Orientation Groundspeed Altitude Reporting Facility
EST Latitude Longitude Course Direction KTS MPH feet Rate Location/Type
05:01PM 40.0022 -82.9100 271° West 160 184 1,400  Level Indianapolis Center
05:01PM 40.0025 -82.9292 271° West 170 196 2,200 2,820 Climbing Indianapolis Center
05:02PM 40.0014 -82.9653 268° West 202 232 3,700 3,420 Climbing Indianapolis Center
05:02PM 39.9958 -82.9992 258° West 224 258 5,300 3,540 Climbing Indianapolis Center
05:03PM 39.9606 -83.0075 190° South 250 288 7,400 3,120 Climbing Indianapolis Center
05:04PM 39.9350 -82.9136 110° East 294 338 10,500 3,180 Climbing Indianapolis Center
05:05PM 39.9344 -82.8083 90° East 296 341 14,000 2,340 Climbing Indianapolis Center
05:06PM 39.9539 -82.6894 78° East 328 377 15,300 1,260 Climbing Indianapolis Center
05:07PM 39.9756 -82.5544 78° East 373 429 16,700 1,140 Climbing Indianapolis Center
05:08PM 39.9969 -82.4086 79° East 400 460 17,700 1,260 Climbing Indianapolis Center
05:09PM 40.0247 -82.2278 79° East 424 488 19,300 1,380 Climbing Indianapolis Center
05:10PM 40.0481 -82.0711 79° East 437 503 20,600 1,200 Climbing Indianapolis Center
05:11PM 40.0714 -81.9136 79° East 442 509 21,800 1,140 Climbing Indianapolis Center
05:12PM 40.0961 -81.7428 79° East 447 514 23,000 1,140 Climbing Indianapolis Center
05:13PM 40.1192 -81.5842 79° East 445 512 24,100 1,080 Climbing Indianapolis Center
05:14PM 40.1575 -81.4228 73° East 460 529 25,200 960 Climbing Indianapolis Center
05:15PM 40.1953 -81.2614 73° East 462 532 26,100 960 Climbing Indianapolis Center
05:16PM 40.2344 -81.0978 73° East 467 537 27,200 1,020 Climbing Indianapolis Center
05:17PM 40.2803 -80.9075 72° East 461 531 28,400 960 Climbing Cleveland Center
05:18PM 40.3175 -80.7461 73° East 463 533 29,400 960 Climbing Cleveland Center
05:19PM 40.3547 -80.5836 73° East 466 536 30,400 720 Climbing Cleveland Center
05:21PM 40.4000 -80.3878 73° East 467 537 31,000 240 Climbing Cleveland Center
05:22PM 40.4406 -80.2081 73° East 486 559 31,000  Level Cleveland Center
05:23PM 40.4783 -80.0308 74° East 503 579 31,000  Level Cleveland Center
05:24PM 40.5208 -79.8444 73° East 508 585 31,000  Level Cleveland Center
05:25PM 40.5611 -79.6644 74° East 513 590 31,000  Level Cleveland Center
05:26PM 40.6014 -79.4831 74° East 517 595 31,000  Level Cleveland Center
05:27PM 40.6408 -79.3008 74° East 519 597 31,000  Level Cleveland Center
05:28PM 40.6797 -79.1186 74° East 518 596 31,000  Level Cleveland Center
05:29PM 40.7239 -78.9128 74° East 522 601 31,000  Level Cleveland Center
05:30PM 40.7631 -78.7308 74° East 523 602 31,000  Level Cleveland Center
05:31PM 40.8011 -78.5492 74° East 525 604 31,000  Level Cleveland Center
05:32PM 40.8439 -78.3444 74° East 524 603 31,000  Level Cleveland Center
05:33PM 40.8847 -78.1486 75° East 526 605 31,000  Level Cleveland Center
05:34PM 40.9281 -77.9678 72° East 524 603 31,000  Level Cleveland Center
05:35PM 41.0000 -77.8028 60° Northeast 523 602 31,000 -780 Level Cleveland Center
05:36PM 41.0744 -77.6375 59° Northeast 528 608 29,500 -1,800 Descending Cleveland Center
05:37PM 41.1633 -77.4367 59° Northeast 532 612 27,300 -1,260 Descending Cleveland Center
05:38PM 41.2347 -77.2722 60° Northeast 521 600 27,000 -180 Descending Cleveland Center
05:39PM 41.3050 -77.1133 59° Northeast 506 582 27,000  Level Cleveland Center
05:40PM 41.3739 -76.9533 60° Northeast 501 577 27,000  Level Cleveland Center
05:41PM 41.4556 -76.7664 60° Northeast 499 574 27,000  Level New York Center
05:42PM 41.5136 -76.6028 65° Northeast 493 567 27,000 -720 Level New York Center
05:43PM 41.4842 -76.4339 103° East 447 514 25,600 -1,500 Descending New York Center
05:44PM 41.4400 -76.2669 109° East 447 514 24,100 -840 Descending New York Center
05:45PM 41.3911 -76.1053 112° Southeast 462 532 24,000 -1,140 Descending New York Center
05:46PM 41.3425 -75.9358 111° Southeast 462 532 21,900 -2,220 Descending New York Center
05:47PM 41.3008 -75.7889 111° Southeast 439 505 19,600 -2,160 Descending New York Center
05:48PM 41.2644 -75.6619 111° Southeast 418 481 17,600 -2,280 Descending New York Center
05:49PM 41.2161 -75.5206 114° Southeast 386 444 15,100 -2,280 Descending New York Center
05:50PM 41.1753 -75.3964 114° Southeast 373 429 13,100 -2,040 Descending New York Center
05:51PM 41.1342 -75.2750 114° Southeast 354 407 11,100 -1,860 Descending New York Center
05:52PM 41.1022 -75.1767 113° Southeast 334 384 9,400 -1,740 Descending New York Center
05:53PM 41.0664 -75.0753 115° Southeast 318 366 7,700 -1,740 Descending New York Center
05:54PM 41.0308 -74.9658 113° Southeast 295 339 6,000 -900 Descending New York Center
05:55PM 40.9967 -74.8728 116° Southeast 289 333 6,000 -660 Level New York Center
05:56PM 40.9558 -74.7853 122° Southeast 289 333 4,700 -1,020 Descending New York Center
05:57PM 40.9150 -74.7003 122° Southeast 282 325 4,000 -360 Descending New York Center
05:58PM 40.8781 -74.6161 120° Southeast 270 311 4,000 -360 Level New York Center
05:59PM 40.8431 -74.5453 123° Southeast 247 284 3,300 -540 Descending New York Center
06:00PM 40.8117 -74.4806 123° Southeast 224 258 3,000 -180 Descending New York Center
06:01PM 40.7844 -74.4217 121° Southeast 197 227 3,000  Level New York Center
06:02PM 40.7500 -74.3842 140° Southeast 185 213 3,000  Level New York Center
06:03PM 40.7014 -74.3433 148° Southeast 185 213 3,000 -240 Level New York Center
06:04PM 40.6964 -74.2964 98° East 147 169 2,600 -780 Descending New York Center
06:05PM 40.7250 -74.2458 53° Northeast 143 165 1,500 -600 Descending New York Center
06:06PM 40.7511 -74.2089 47° Northeast 148 170 1,500  Level New York Center
06:07PM 40.7817 -74.1667 46° Northeast 148 170 1,500 -180 Level New York Center
06:09PM 40.8167 -74.1167 47° Northeast 110 127 1,200 -480 Descending New York TRACON
06:10PM 40.8333 -74.1000 37° Northeast 114 131 500 -720 Descending New York TRACON